DW1083 Weather Reports


time (UTC)temp
C
wind
direction
speed
KPH
gust
KPH
rain 1hr
cm
rain 24hr
cm
rain mn
cm
humidity
%
barometer
mb
20190418133309 12 135 6.4 11.3 0.00 0.00 0.00 59 1024.9
20190418130309 12 202 1.6 8.0 0.00 0.00 0.00 55 1024.9
20190418113309 11 225 0.0 3.2 0.00 0.00 0.00 62 1024.8
20190418110309 11 225 3.2 9.7 0.00 0.00 0.00 63 1024.7
20190418103309 11 180 3.2 8.0 0.00 0.00 0.00 70 1024.8
20190418100309 9 90 3.2 8.0 0.00 0.00 0.00 71 1024.4
20190418090309 9 157 4.8 9.7 0.00 0.00 0.00 77 1025.0
20190418080309 7 135 1.6 6.4 0.00 0.00 0.00 82 1024.7
20190418070309 6 0 0.0 0.0 0.00 0.00 0.00 85 1024.2
20190418053309 4 0 0.0 0.0 0.00 0.00 0.00 91 1023.8
20190418050309 3 0 0.0 0.0 0.00 0.00 0.00 90 1023.4
20190418043309 3 0 0.0 0.0 0.00 0.00 0.00 90 1023.5
20190418020309 4 0 0.0 0.0 0.00 0.00 0.00 88 1024.2
20190418003309 3 0 0.0 0.0 0.00 0.00 0.00 87 1024.0
20190418000311 3 292 3.2 8.0 0.00 0.00 0.00 85 1023.7
20190417230309 4 292 4.8 6.4 0.00 0.00 0.00 83 1024.4
20190417220309 4 0 0.0 0.0 0.00 0.00 0.00 81 1023.5
20190417213309 5 292 0.0 6.4 0.00 0.00 0.00 78 1023.3
20190417210309 6 292 3.2 11.3 0.00 0.00 0.00 72 1023.0
20190417200309 6 0 0.0 0.0 0.00 0.00 0.00 71 1022.2
20190417193309 6 0 0.0 0.0 0.00 0.00 0.00 68 1021.9
20190417190309 6 0 0.0 0.0 0.00 0.00 0.00 72 1021.2
20190417183309 7 292 0.0 4.8 0.00 0.00 0.00 72 1020.9
20190417170309 9 292 0.0 6.4 0.00 0.00 0.00 73 1018.9
20190417163309 11 315 4.8 6.4 0.00 0.00 0.00 70 1018.7
20190417153309 11 292 4.8 6.4 0.00 0.00 0.00 73 1018.6
20190417150309 12 112 1.6 4.8 0.00 0.00 0.00 57 1018.8